Time;durP1;ratioP1;P1;durP2;ratioP2;P2;SDS_P1;SDS_P2;PMS_P1;PMS_P2;Temp;Humidity;BMP_temperature;BMP_pressure;BME280_temperature;BME280_humidity;BME280_pressure;Samples;Min_cycle;Max_cycle;Signal;HPM_P1;HPM_P2
2022/07/21 00:01:25;;;;;;;;;;;;;;;23.63;49.72;99912.88;5082391;28;19921;-74
2022/07/21 00:03:51;;;;;;;;;;;;;;;23.70;49.42;99915.44;5082956;28;20074;-74
2022/07/21 00:06:16;;;;;;;;;;;;;;;23.74;49.29;99909.28;5066821;28;19912;-74
2022/07/21 00:08:42;;;;;;;;;;;;;;;23.77;49.26;99897.97;5083443;28;19987;-74
2022/07/21 00:11:07;;;;;;;;;;;;;;;23.89;48.66;99906.03;5083341;28;19913;-74
2022/07/21 00:13:32;;;;;;;;;;;;;;;23.84;49.16;99905.94;5082526;28;20106;-74
2022/07/21 00:15:58;;;;;;;;;;;;;;;23.74;49.42;99913.88;5083096;28;19919;-74
2022/07/21 00:18:24;;;;;;;;;;;;;;;23.97;48.97;99899.41;5083850;28;20826;-74
2022/07/21 00:20:49;;;;;;;;;;;;;;;23.89;49.14;99908.72;5065189;28;19987;-74
2022/07/21 00:23:15;;;;;;;;;;;;;;;23.76;49.53;99906.34;5083308;28;20299;-74
2022/07/21 00:25:40;;;;;;;;;;;;;;;23.59;49.85;99917.13;5082995;28;20205;-74
2022/07/21 00:28:06;;;;;;;;;;;;;;;23.75;49.40;99918.22;5082861;28;19987;-74
2022/07/21 00:30:31;;;;;;;;;;;;;;;23.69;49.76;99919.19;5082270;28;20022;-74
2022/07/21 00:32:57;;;;;;;;;;;;;;;23.76;49.58;99915.28;5081579;28;19935;-74
2022/07/21 00:35:22;;;;;;;;;;;;;;;23.66;49.69;99908.88;5083503;28;19931;-74
2022/07/21 00:37:48;;;;;;;;;;;;;;;23.68;49.71;99912.16;5081819;28;20127;-74
2022/07/21 00:40:13;;;;;;;;;;;;;;;23.70;49.47;99908.13;5083011;28;19991;-74
2022/07/21 00:42:39;;;;;;;;;;;;;;;23.70;49.61;99905.44;5082210;28;19909;-74
2022/07/21 00:45:05;;;;;;;;;;;;;;;23.78;49.11;99901.50;5082083;28;19916;-74
2022/07/21 00:47:31;;;;;;;;;;;;;;;23.56;49.91;99906.81;5082556;28;19913;-74
2022/07/21 00:49:57;;;;;;;;;;;;;;;23.39;49.94;99906.72;5082363;28;19916;-74
2022/07/21 00:52:22;;;;;;;;;;;;;;;23.24;50.67;99906.44;5081623;28;19971;-74
2022/07/21 00:54:48;;;;;;;;;;;;;;;22.91;52.33;99909.84;5082809;28;19916;-74
2022/07/21 00:57:14;;;;;;;;;;;;;;;22.60;53.77;99901.03;5083109;28;19920;-74
2022/07/21 00:59:39;;;;;;;;;;;;;;;22.27;55.11;99907.03;5082330;28;19916;-74
2022/07/21 01:02:05;;;;;;;;;;;;;;;22.24;55.03;99904.81;5082190;28;20214;-74
2022/07/21 01:04:30;;;;;;;;;;;;;;;22.18;54.95;99900.34;5082990;28;19955;-74
2022/07/21 01:06:56;;;;;;;;;;;;;;;22.22;54.99;99906.91;5081488;28;20225;-74
2022/07/21 01:09:22;;;;;;;;;;;;;;;22.26;54.23;99907.25;5082006;28;19953;-74
2022/07/21 01:11:47;;;;;;;;;;;;;;;22.35;53.92;99903.16;5080689;28;19928;-73
2022/07/21 01:14:13;;;;;;;;;;;;;;;22.53;53.74;99900.34;5083438;28;19924;-74
2022/07/21 01:16:39;;;;;;;;;;;;;;;22.53;53.78;99907.59;5082331;28;19919;-74
2022/07/21 01:19:05;;;;;;;;;;;;;;;22.59;53.42;99902.09;5082387;28;19924;-74
2022/07/21 01:21:32;;;;;;;;;;;;;;;22.58;53.07;99905.03;5081355;28;20173;-74
2022/07/21 01:23:59;;;;;;;;;;;;;;;22.66;53.11;99907.34;5082235;28;19985;-74
2022/07/21 01:26:24;;;;;;;;;;;;;;;22.64;52.91;99901.38;5083550;28;19955;-74
2022/07/21 01:28:50;;;;;;;;;;;;;;;22.76;52.73;99901.34;5084229;28;19924;-74
2022/07/21 01:31:15;;;;;;;;;;;;;;;22.78;52.90;99901.94;5080933;28;20114;-74
2022/07/21 01:33:40;;;;;;;;;;;;;;;22.78;52.67;99897.34;5081220;28;19958;-74
2022/07/21 01:36:06;;;;;;;;;;;;;;;22.81;52.70;99896.91;5081091;28;20110;-74
2022/07/21 01:41:32;;;;;;;;;;;;;;;22.77;52.53;99898.41;5081808;28;19976;-74
2022/07/21 01:43:58;;;;;;;;;;;;;;;22.62;53.04;99888.13;5080620;28;19983;-74
2022/07/21 01:46:24;;;;;;;;;;;;;;;22.59;52.75;99885.91;5082296;28;19912;-74
2022/07/21 01:48:49;;;;;;;;;;;;;;;22.59;52.85;99883.19;5081753;28;20060;-74
2022/07/21 01:51:14;;;;;;;;;;;;;;;22.60;52.98;99889.41;5063665;28;19945;-74
2022/07/21 01:53:40;;;;;;;;;;;;;;;22.58;53.02;99886.94;5081138;28;20203;-74
2022/07/21 01:56:06;;;;;;;;;;;;;;;22.57;53.17;99889.88;5080903;28;19983;-74
2022/07/21 01:58:32;;;;;;;;;;;;;;;22.56;53.12;99885.53;5081821;28;19946;-74
2022/07/21 02:00:57;;;;;;;;;;;;;;;22.44;53.53;99885.56;5081119;28;20271;-74
2022/07/21 02:03:22;;;;;;;;;;;;;;;22.35;53.48;99892.38;5081367;28;19909;-74
2022/07/21 02:05:48;;;;;;;;;;;;;;;22.22;53.66;99892.59;5082731;28;20114;-74
2022/07/21 02:08:13;;;;;;;;;;;;;;;22.12;54.03;99881.59;5082524;28;20197;-74
2022/07/21 02:10:38;;;;;;;;;;;;;;;22.10;54.95;99878.31;5086925;28;20152;-74
2022/07/21 02:13:03;;;;;;;;;;;;;;;22.16;54.61;99883.56;5086966;28;19920;-74
2022/07/21 02:15:30;;;;;;;;;;;;;;;22.22;53.98;99884.50;5067484;28;20109;-74
2022/07/21 02:17:56;;;;;;;;;;;;;;;22.15;54.16;99894.59;5086064;28;19927;-74
2022/07/21 02:20:21;;;;;;;;;;;;;;;22.02;54.42;99884.00;5084676;28;19916;-74
2022/07/21 02:22:47;;;;;;;;;;;;;;;21.73;55.55;99881.13;5085058;28;19923;-74
2022/07/21 02:25:12;;;;;;;;;;;;;;;21.54;56.11;99885.75;5084863;28;19923;-74
2022/07/21 02:27:38;;;;;;;;;;;;;;;21.49;56.62;99876.72;5084642;28;19920;-74
2022/07/21 02:30:03;;;;;;;;;;;;;;;21.52;56.39;99877.09;5067501;28;19917;-74
2022/07/21 02:32:29;;;;;;;;;;;;;;;21.55;56.41;99876.63;5067069;28;19908;-74
2022/07/21 02:34:54;;;;;;;;;;;;;;;21.66;56.20;99875.00;5084179;28;19956;-74
2022/07/21 02:37:19;;;;;;;;;;;;;;;21.71;54.89;99875.13;5084297;28;19983;-74
2022/07/21 02:39:45;;;;;;;;;;;;;;;21.55;55.44;99873.94;5085439;28;19923;-74
2022/07/21 02:42:10;;;;;;;;;;;;;;;21.42;55.88;99876.00;5084574;28;19908;-74
2022/07/21 02:44:36;;;;;;;;;;;;;;;21.47;55.69;99874.25;5084179;28;20000;-74
2022/07/21 02:47:01;;;;;;;;;;;;;;;21.45;56.34;99872.84;5085077;28;19912;-74
2022/07/21 02:49:26;;;;;;;;;;;;;;;21.61;56.16;99874.88;5066452;28;19950;-74
2022/07/21 02:51:52;;;;;;;;;;;;;;;21.61;56.13;99867.63;5085175;28;19919;-74
2022/07/21 02:54:17;;;;;;;;;;;;;;;21.52;56.77;99869.00;5065946;28;20202;-74
2022/07/21 02:56:42;;;;;;;;;;;;;;;21.50;57.12;99870.28;5084398;28;19919;-74
2022/07/21 02:59:07;;;;;;;;;;;;;;;21.54;56.91;99871.47;5085357;28;19917;-74
2022/07/21 03:01:33;;;;;;;;;;;;;;;21.56;56.92;99870.19;5084194;28;19912;-74
2022/07/21 03:03:58;;;;;;;;;;;;;;;21.64;56.99;99866.34;5084118;28;20258;-74
2022/07/21 03:06:23;;;;;;;;;;;;;;;21.65;56.96;99871.50;5086013;28;19991;-74
2022/07/21 03:08:49;;;;;;;;;;;;;;;21.82;56.35;99873.50;5065950;28;19924;-74
2022/07/21 03:11:14;;;;;;;;;;;;;;;21.91;56.12;99869.47;5085408;28;20010;-74
2022/07/21 03:13:39;;;;;;;;;;;;;;;21.84;56.11;99876.81;5084000;28;19950;-74
2022/07/21 03:16:05;;;;;;;;;;;;;;;21.62;57.03;99874.66;5084392;28;20252;-74
2022/07/21 03:18:30;;;;;;;;;;;;;;;21.68;56.75;99871.03;5084660;28;19912;-74
2022/07/21 03:20:56;;;;;;;;;;;;;;;21.62;57.10;99865.75;5082327;28;19920;-74
2022/07/21 03:23:21;;;;;;;;;;;;;;;21.80;56.97;99865.66;5083879;28;19920;-74
2022/07/21 03:25:46;;;;;;;;;;;;;;;21.84;57.22;99869.53;5083206;28;19958;-74
2022/07/21 03:28:12;;;;;;;;;;;;;;;21.59;58.35;99874.28;5085725;28;20094;-74
2022/07/21 03:30:37;;;;;;;;;;;;;;;21.87;57.44;99876.38;5085091;28;19916;-74
2022/07/21 03:33:03;;;;;;;;;;;;;;;21.70;58.25;99875.38;5067466;28;19912;-74
2022/07/21 03:35:28;;;;;;;;;;;;;;;21.61;59.14;99874.88;5084897;28;20099;-74
2022/07/21 03:37:55;;;;;;;;;;;;;;;21.63;59.32;99875.47;5088655;28;19912;-74
2022/07/21 03:40:23;;;;;;;;;;;;;;;21.84;58.74;99876.81;5084091;28;20132;-74
2022/07/21 03:42:49;;;;;;;;;;;;;;;22.05;58.16;99876.31;5083651;28;20221;-74
2022/07/21 03:45:14;;;;;;;;;;;;;;;21.86;58.79;99874.72;5082762;28;20140;-74
2022/07/21 03:47:39;;;;;;;;;;;;;;;21.99;58.42;99877.19;5065790;28;19912;-74
2022/07/21 03:50:05;;;;;;;;;;;;;;;21.85;58.85;99875.78;5084230;28;19920;-74
2022/07/21 03:52:30;;;;;;;;;;;;;;;21.68;59.42;99875.59;5084221;28;19912;-74
2022/07/21 03:55:08;;;;;;;;;;;;;;;21.47;60.35;99882.34;5084175;28;19970;-74
2022/07/21 03:57:37;;;;;;;;;;;;;;;21.69;59.44;99879.94;5065033;28;19913;-74
2022/07/21 04:00:04;;;;;;;;;;;;;;;21.40;59.99;99881.63;5083472;28;19922;-74
2022/07/21 04:02:29;;;;;;;;;;;;;;;21.32;60.59;99880.06;5083237;28;19975;-74
2022/07/21 04:04:54;;;;;;;;;;;;;;;21.11;60.90;99879.72;5083373;28;19927;-74
2022/07/21 04:07:20;;;;;;;;;;;;;;;20.92;61.39;99874.34;5082806;28;19935;-74
2022/07/21 04:09:45;;;;;;;;;;;;;;;20.81;61.70;99874.28;5083752;28;19954;-75
2022/07/21 04:12:10;;;;;;;;;;;;;;;21.23;60.01;99881.44;5084750;28;19975;-74
2022/07/21 04:14:36;;;;;;;;;;;;;;;21.43;59.17;99877.66;5081995;28;19966;-74
2022/07/21 04:17:01;;;;;;;;;;;;;;;21.56;58.50;99885.53;5083922;28;20206;-74
2022/07/21 04:19:28;;;;;;;;;;;;;;;21.60;58.22;99884.84;5082912;28;19923;-74
2022/07/21 04:21:53;;;;;;;;;;;;;;;21.65;57.38;99884.16;5082430;28;19912;-74
2022/07/21 04:24:18;;;;;;;;;;;;;;;21.78;56.38;99877.72;5082771;28;19983;-74
2022/07/21 04:29:46;;;;;;;;;;;;;;;21.81;55.79;99872.69;5114863;28;19960;-68
2022/07/21 04:32:11;;;;;;;;;;;;;;;22.19;54.62;99879.59;5113699;28;19920;-68
2022/07/21 04:34:37;;;;;;;;;;;;;;;22.30;54.28;99884.16;5104000;28;20116;-67
2022/07/21 04:37:02;;;;;;;;;;;;;;;22.65;52.60;99881.44;5103857;28;19915;-68
2022/07/21 04:39:28;;;;;;;;;;;;;;;22.80;52.25;99876.38;5103808;28;19923;-68
2022/07/21 04:41:53;;;;;;;;;;;;;;;22.84;52.47;99879.41;5103638;28;19916;-68
2022/07/21 04:44:19;;;;;;;;;;;;;;;22.90;51.06;99876.63;5103587;28;19916;-68
2022/07/21 04:46:44;;;;;;;;;;;;;;;23.12;50.33;99865.16;5103555;28;19934;-68
2022/07/21 04:49:09;;;;;;;;;;;;;;;23.23;50.18;99861.59;5103817;28;19916;-68
2022/07/21 04:51:35;;;;;;;;;;;;;;;23.56;49.56;99863.56;5103164;28;20166;-68
2022/07/21 04:54:00;;;;;;;;;;;;;;;23.85;48.56;99872.44;5103635;28;20117;-67
2022/07/21 04:56:25;;;;;;;;;;;;;;;23.96;48.15;99863.44;5103239;28;19961;-68
2022/07/21 04:58:50;;;;;;;;;;;;;;;23.96;48.19;99865.31;5103527;28;20190;-68
2022/07/21 05:01:18;;;;;;;;;;;;;;;24.17;47.34;99862.69;5103404;28;19904;-68
2022/07/21 05:03:43;;;;;;;;;;;;;;;24.11;47.14;99874.50;5103495;28;20265;-68
2022/07/21 05:06:08;;;;;;;;;;;;;;;24.50;46.60;99863.72;5103318;28;19912;-68
2022/07/21 05:08:34;;;;;;;;;;;;;;;24.79;45.23;99872.47;5103588;28;19953;-68
2022/07/21 05:10:59;;;;;;;;;;;;;;;24.98;44.82;99871.16;5103235;28;19916;-68
2022/07/21 05:13:24;;;;;;;;;;;;;;;25.28;44.56;99876.09;5103275;28;19911;-68
2022/07/21 05:15:49;;;;;;;;;;;;;;;25.23;44.22;99862.47;5085157;28;19916;-68
2022/07/21 05:18:15;;;;;;;;;;;;;;;25.43;43.82;99870.81;5103527;28;19942;-68
2022/07/21 05:20:40;;;;;;;;;;;;;;;25.63;43.01;99872.06;5100864;28;19938;-68
2022/07/21 05:23:05;;;;;;;;;;;;;;;25.80;42.09;99863.84;5084251;28;19965;-68
2022/07/21 05:25:32;;;;;;;;;;;;;;;26.12;41.39;99877.41;5083270;28;20205;-68
2022/07/21 05:27:57;;;;;;;;;;;;;;;26.23;40.31;99877.22;5083426;28;19969;-68
2022/07/21 05:30:22;;;;;;;;;;;;;;;26.53;40.23;99882.03;5083871;28;19948;-68
2022/07/21 05:32:48;;;;;;;;;;;;;;;27.16;38.90;99871.22;5082669;28;19908;-69
2022/07/21 05:35:13;;;;;;;;;;;;;;;27.30;38.42;99875.06;5081917;28;20008;-68
2022/07/21 05:37:39;;;;;;;;;;;;;;;27.29;37.80;99838.09;5081721;28;19920;-68
2022/07/21 05:40:05;;;;;;;;;;;;;;;27.46;38.03;99865.03;5083779;28;19917;-68
2022/07/21 05:42:30;;;;;;;;;;;;;;;27.54;38.08;99859.88;5084651;28;19927;-68
2022/07/21 05:44:56;;;;;;;;;;;;;;;27.76;37.20;99864.25;5082557;28;19979;-68
2022/07/21 05:47:21;;;;;;;;;;;;;;;28.05;36.50;99861.78;5081283;28;20300;-68
2022/07/21 05:49:47;;;;;;;;;;;;;;;27.91;36.49;99862.34;5063939;28;19918;-68
2022/07/21 05:52:12;;;;;;;;;;;;;;;28.09;35.75;99851.97;5082907;28;19943;-68
2022/07/21 05:54:37;;;;;;;;;;;;;;;28.18;35.51;99853.09;5083208;28;20205;-68
2022/07/21 05:57:02;;;;;;;;;;;;;;;28.23;35.43;99853.94;5082271;28;19913;-68
2022/07/21 05:59:28;;;;;;;;;;;;;;;28.59;34.95;99851.09;5086072;28;19947;-68
2022/07/21 06:01:53;;;;;;;;;;;;;;;28.46;34.76;99849.78;5081487;28;19912;-68
2022/07/21 06:04:18;;;;;;;;;;;;;;;28.80;34.93;99847.19;5085950;28;19916;-68
2022/07/21 06:06:44;;;;;;;;;;;;;;;29.05;34.48;99850.91;5083594;28;19920;-68
2022/07/21 06:09:09;;;;;;;;;;;;;;;29.32;33.79;99850.50;5082574;28;20126;-68
2022/07/21 06:11:34;;;;;;;;;;;;;;;29.39;33.96;99851.00;5080798;28;19909;-68
2022/07/21 06:13:59;;;;;;;;;;;;;;;29.34;34.42;99840.13;5081475;28;20105;-68
2022/07/21 06:16:25;;;;;;;;;;;;;;;29.51;34.03;99833.22;5081724;28;20193;-68
2022/07/21 06:18:50;;;;;;;;;;;;;;;29.75;33.30;99830.56;5081732;28;19921;-68
2022/07/21 06:21:15;;;;;;;;;;;;;;;29.94;33.38;99832.56;5082572;28;19916;-68
2022/07/21 06:23:40;;;;;;;;;;;;;;;30.35;32.57;99825.66;5080984;28;20197;-68
2022/07/21 06:26:06;;;;;;;;;;;;;;;30.38;31.94;99832.44;5081698;28;20199;-68
2022/07/21 06:28:31;;;;;;;;;;;;;;;30.66;31.57;99826.13;5082072;28;19912;-68
2022/07/21 06:30:56;;;;;;;;;;;;;;;30.75;31.99;99827.09;5082468;28;19939;-68
2022/07/21 06:33:22;;;;;;;;;;;;;;;30.97;31.42;99821.06;5084017;28;19951;-68
2022/07/21 06:35:47;;;;;;;;;;;;;;;30.88;31.41;99819.28;5081882;28;20022;-68
2022/07/21 06:38:12;;;;;;;;;;;;;;;31.16;31.74;99820.28;5081282;28;19912;-68
2022/07/21 06:40:38;;;;;;;;;;;;;;;31.44;31.25;99813.84;5083011;28;19980;-68
2022/07/21 06:43:03;;;;;;;;;;;;;;;31.52;30.19;99815.91;5081224;28;19916;-68
2022/07/21 06:45:28;;;;;;;;;;;;;;;31.46;30.64;99806.16;5080657;28;19912;-68
2022/07/21 06:48:04;;;;;;;;;;;;;;;31.48;29.41;99811.34;5081893;28;19920;-68
2022/07/21 06:50:29;;;;;;;;;;;;;;;31.63;29.85;99803.69;5094337;28;19916;-68
2022/07/21 06:52:54;;;;;;;;;;;;;;;31.71;28.91;99802.22;5101014;28;19951;-68
2022/07/21 06:55:20;;;;;;;;;;;;;;;32.18;28.54;99800.25;5091287;28;19917;-68
2022/07/21 06:57:45;;;;;;;;;;;;;;;31.99;27.21;99801.16;5086802;28;19925;-68
2022/07/21 07:00:12;;;;;;;;;;;;;;;32.28;27.02;99802.84;5084538;28;20409;-69
2022/07/21 07:02:37;;;;;;;;;;;;;;;32.24;27.13;99790.84;5084349;28;19979;-69
2022/07/21 07:05:03;;;;;;;;;;;;;;;32.24;27.05;99788.91;5085382;28;19916;-68
2022/07/21 07:07:30;;;;;;;;;;;;;;;32.17;27.30;99790.41;5085521;28;20208;-68
2022/07/21 07:09:55;;;;;;;;;;;;;;;32.24;26.88;99783.44;5085350;28;19955;-68
2022/07/21 07:12:20;;;;;;;;;;;;;;;32.67;26.64;99794.91;5085375;28;19920;-69
2022/07/21 07:14:46;;;;;;;;;;;;;;;32.77;26.80;99780.19;5085633;28;20079;-68
2022/07/21 07:17:15;;;;;;;;;;;;;;;32.63;26.03;99785.66;5084310;28;19913;-68
2022/07/21 07:19:40;;;;;;;;;;;;;;;32.69;26.22;99778.97;5089702;28;19953;-68
2022/07/21 07:22:05;;;;;;;;;;;;;;;32.81;25.77;99774.91;5085947;28;19913;-68
2022/07/21 07:24:30;;;;;;;;;;;;;;;32.81;26.70;99780.38;5084409;28;19924;-68
2022/07/21 07:26:56;;;;;;;;;;;;;;;33.01;26.18;99774.44;5083395;28;19965;-69
2022/07/21 07:29:22;;;;;;;;;;;;;;;33.15;25.83;99771.66;5090955;28;19939;-69
2022/07/21 07:31:47;;;;;;;;;;;;;;;33.19;25.78;99769.91;5085866;28;19984;-68
2022/07/21 07:34:12;;;;;;;;;;;;;;;33.18;26.50;99769.09;5084894;28;19916;-69
2022/07/21 07:36:38;;;;;;;;;;;;;;;33.35;26.05;99771.22;5083850;28;20177;-69
2022/07/21 07:39:03;;;;;;;;;;;;;;;33.51;25.23;99763.41;5085448;28;19921;-68
2022/07/21 07:41:31;;;;;;;;;;;;;;;33.54;25.22;99765.53;5084268;28;19913;-68
2022/07/21 07:43:58;;;;;;;;;;;;;;;33.76;25.47;99768.22;5086165;28;19920;-69
2022/07/21 07:46:23;;;;;;;;;;;;;;;33.94;25.12;99761.72;5083918;28;19951;-68
2022/07/21 07:48:48;;;;;;;;;;;;;;;33.94;24.91;99758.16;5085164;28;19931;-68
2022/07/21 07:51:14;;;;;;;;;;;;;;;34.24;24.67;99762.00;5086521;28;20185;-68
2022/07/21 07:53:39;;;;;;;;;;;;;;;34.24;24.56;99756.50;5084734;28;19919;-68
2022/07/21 07:56:05;;;;;;;;;;;;;;;34.31;24.51;99756.03;5085807;28;19923;-68
2022/07/21 07:58:31;;;;;;;;;;;;;;;34.51;24.65;99753.56;5085449;28;20127;-69
2022/07/21 08:00:56;;;;;;;;;;;;;;;34.49;24.23;99752.25;5083025;28;19912;-66
2022/07/21 08:03:22;;;;;;;;;;;;;;;34.69;24.20;99740.63;5085234;28;19920;-66
2022/07/21 08:05:48;;;;;;;;;;;;;;;34.41;24.43;99742.03;5084267;28;19924;-66
2022/07/21 08:08:14;;;;;;;;;;;;;;;34.52;24.39;99738.66;5083676;28;19935;-66
2022/07/21 08:10:39;;;;;;;;;;;;;;;34.68;24.58;99743.72;5085366;28;19932;-66
2022/07/21 08:13:05;;;;;;;;;;;;;;;34.96;24.30;99738.72;5084936;28;20100;-69
2022/07/21 08:15:30;;;;;;;;;;;;;;;34.81;24.55;99740.00;5084883;28;19923;-69
2022/07/21 08:17:55;;;;;;;;;;;;;;;34.97;24.49;99735.66;5082701;28;20240;-68
2022/07/21 08:20:21;;;;;;;;;;;;;;;34.94;23.90;99732.75;5082943;28;20201;-69
2022/07/21 08:22:46;;;;;;;;;;;;;;;34.86;24.63;99724.16;5085796;28;19919;-68
2022/07/21 08:25:14;;;;;;;;;;;;;;;35.06;23.84;99719.94;5084900;28;19915;-69
2022/07/21 08:27:42;;;;;;;;;;;;;;;34.69;24.18;99723.31;5084183;28;20327;-68
2022/07/21 08:30:07;;;;;;;;;;;;;;;34.80;23.19;99719.13;5084833;28;19992;-68
2022/07/21 08:32:33;;;;;;;;;;;;;;;34.72;24.01;99722.69;5082386;28;19912;-69
2022/07/21 08:34:58;;;;;;;;;;;;;;;34.92;24.04;99719.31;5065474;28;19954;-68
2022/07/21 08:37:24;;;;;;;;;;;;;;;35.18;23.96;99724.78;5086516;28;20294;-69
2022/07/21 08:39:49;;;;;;;;;;;;;;;35.13;23.19;99711.19;5084634;28;19923;-69
2022/07/21 08:42:15;;;;;;;;;;;;;;;35.00;24.07;99713.00;5082258;28;19918;-68
2022/07/21 08:44:40;;;;;;;;;;;;;;;34.96;24.77;99716.72;5082359;28;19927;-68
2022/07/21 08:47:06;;;;;;;;;;;;;;;34.93;24.07;99715.44;5083854;28;20074;-68
2022/07/21 08:49:33;;;;;;;;;;;;;;;34.91;24.78;99711.38;5082398;28;19934;-68
2022/07/21 08:51:58;;;;;;;;;;;;;;;35.19;23.78;99707.13;5082070;28;19912;-69
2022/07/21 08:54:24;;;;;;;;;;;;;;;35.21;23.83;99707.63;5085031;28;19923;-68
2022/07/21 08:56:50;;;;;;;;;;;;;;;35.35;23.31;99713.78;5084488;28;19928;-66
2022/07/21 08:59:15;;;;;;;;;;;;;;;35.36;23.58;99706.31;5082888;28;19924;-68
2022/07/21 09:01:40;;;;;;;;;;;;;;;35.49;24.61;99700.66;5082053;28;19924;-68
2022/07/21 09:04:25;;;;;;;;;;;;;;;35.78;23.61;99688.88;5084381;28;20529;-68
2022/07/21 09:06:59;;;;;;;;;;;;;;;36.01;23.70;99688.63;5083931;28;20376;-68
2022/07/21 09:09:25;;;;;;;;;;;;;;;35.96;23.47;99680.56;5064180;28;19916;-68
2022/07/21 09:11:51;;;;;;;;;;;;;;;36.21;23.27;99687.06;5082282;28;19912;-68
2022/07/21 09:14:18;;;;;;;;;;;;;;;36.18;22.07;99683.03;5088968;28;19940;-68
2022/07/21 09:16:44;;;;;;;;;;;;;;;36.04;21.70;99682.44;5086013;28;19912;-68
2022/07/21 09:19:17;;;;;;;;;;;;;;;36.12;22.72;99682.41;5082056;28;20255;-68
2022/07/21 09:21:42;;;;;;;;;;;;;;;36.23;21.88;99679.25;5082797;28;19931;-68
2022/07/21 09:24:19;;;;;;;;;;;;;;;35.95;23.06;99677.00;5082797;28;19916;-68
2022/07/21 09:26:56;;;;;;;;;;;;;;;35.93;22.54;99672.94;5083127;28;19919;-68
2022/07/21 09:29:22;;;;;;;;;;;;;;;36.00;22.74;99665.78;5080785;28;19923;-68
2022/07/21 09:31:47;;;;;;;;;;;;;;;36.26;21.60;99668.38;5085171;28;19925;-68
2022/07/21 09:34:13;;;;;;;;;;;;;;;36.40;20.91;99666.19;5084947;28;19916;-68
2022/07/21 09:36:39;;;;;;;;;;;;;;;36.33;21.52;99659.59;5082693;28;19920;-68
2022/07/21 09:39:04;;;;;;;;;;;;;;;36.33;21.68;99659.59;5083828;28;19924;-68
2022/07/21 09:41:30;;;;;;;;;;;;;;;36.24;21.78;99659.63;5082802;28;19912;-68
2022/07/21 09:43:56;;;;;;;;;;;;;;;36.17;21.48;99664.88;5083239;28;20018;-68
2022/07/21 09:46:28;;;;;;;;;;;;;;;36.06;22.14;99669.16;5081163;28;19909;-69
2022/07/21 09:48:55;;;;;;;;;;;;;;;36.03;21.38;99662.34;5083131;28;20220;-68
2022/07/21 09:51:26;;;;;;;;;;;;;;;35.82;21.44;99667.00;5081942;28;20102;-68
2022/07/21 09:54:02;;;;;;;;;;;;;;;35.86;21.79;99667.16;5074354;28;19922;-68
2022/07/21 09:56:32;;;;;;;;;;;;;;;35.98;21.83;99657.03;5101057;28;20079;-68
2022/07/21 09:58:58;;;;;;;;;;;;;;;35.80;21.43;99658.25;5092064;28;19999;-68
2022/07/21 10:01:24;;;;;;;;;;;;;;;35.58;22.32;99659.31;5083050;28;19912;-68
2022/07/21 10:03:50;;;;;;;;;;;;;;;35.63;23.36;99656.38;5083175;28;19924;-68
2022/07/21 10:06:16;;;;;;;;;;;;;;;35.67;23.19;99651.00;5082398;28;20462;-68
2022/07/21 10:08:42;;;;;;;;;;;;;;;35.76;22.10;99649.03;5095352;28;19912;-68
2022/07/21 10:11:08;;;;;;;;;;;;;;;35.74;22.94;99645.78;5101256;28;20296;-68
2022/07/21 10:13:33;;;;;;;;;;;;;;;35.79;21.79;99653.88;5087783;28;19975;-68
2022/07/21 10:16:00;;;;;;;;;;;;;;;35.66;21.13;99644.69;5082009;28;20118;-68
2022/07/21 10:18:28;;;;;;;;;;;;;;;35.83;21.53;99644.63;5082463;28;19984;-69
2022/07/21 10:21:04;;;;;;;;;;;;;;;35.76;21.85;99618.72;5080754;28;19912;-68
2022/07/21 10:23:35;;;;;;;;;;;;;;;35.57;22.40;99629.34;5082637;28;20183;-68
2022/07/21 10:26:02;;;;;;;;;;;;;;;35.61;22.12;99622.03;5085172;28;19995;-68
2022/07/21 10:28:28;;;;;;;;;;;;;;;35.63;21.62;99623.31;5083775;28;19984;-68
2022/07/21 10:30:55;;;;;;;;;;;;;;;35.61;22.88;99627.53;5085453;28;19920;-68
2022/07/21 10:33:21;;;;;;;;;;;;;;;35.88;21.79;99618.84;5085297;28;19931;-68
2022/07/21 10:35:48;;;;;;;;;;;;;;;35.85;22.30;99614.00;5084655;28;20104;-68
2022/07/21 10:38:26;;;;;;;;;;;;;;;35.78;22.41;99613.69;5085739;28;20194;-68
2022/07/21 10:40:51;;;;;;;;;;;;;;;35.94;22.86;99606.50;5085284;28;20118;-68
2022/07/21 10:43:19;;;;;;;;;;;;;;;35.91;23.05;99607.16;5084682;28;19915;-68
2022/07/21 10:45:44;;;;;;;;;;;;;;;35.99;21.97;99605.47;5086737;28;20004;-68
2022/07/21 10:48:28;;;;;;;;;;;;;;;36.02;22.12;99602.06;5087402;28;19912;-68
2022/07/21 10:50:57;;;;;;;;;;;;;;;36.03;22.10;99595.41;5085949;28;19923;-68
2022/07/21 10:53:22;;;;;;;;;;;;;;;35.94;22.09;99592.72;5084237;28;19915;-68
2022/07/21 10:55:49;;;;;;;;;;;;;;;35.79;22.10;99596.00;5083869;28;19920;-68
2022/07/21 10:58:16;;;;;;;;;;;;;;;35.78;22.64;99583.38;5087552;28;19921;-68
2022/07/21 11:00:55;;;;;;;;;;;;;;;35.91;22.83;99587.88;5085611;28;19916;-68
2022/07/21 11:03:23;;;;;;;;;;;;;;;35.99;22.40;99592.50;5068152;28;19912;-68
2022/07/21 11:06:23;;;;;;;;;;;;;;;35.80;22.31;99592.97;5086086;28;19948;-68
2022/07/21 11:08:53;;;;;;;;;;;;;;;35.71;22.74;99575.66;5072825;28;19916;-68
2022/07/21 11:11:23;;;;;;;;;;;;;;;36.01;21.81;99581.16;5085485;28;19912;-68
2022/07/21 11:14:02;;;;;;;;;;;;;;;35.74;22.30;99586.00;5086419;28;20201;-68
2022/07/21 11:16:54;;;;;;;;;;;;;;;35.72;21.52;99576.44;5086747;28;20241;-68
2022/07/21 11:19:40;;;;;;;;;;;;;;;35.59;22.19;99574.75;5082576;28;19983;-68
2022/07/21 11:22:05;;;;;;;;;;;;;;;35.81;22.22;99574.47;5076981;28;19980;-68
2022/07/21 11:24:31;;;;;;;;;;;;;;;35.94;22.15;99578.13;5085477;28;19947;-68
2022/07/21 11:26:58;;;;;;;;;;;;;;;35.85;22.08;99574.63;5084846;28;19912;-68
2022/07/21 11:29:23;;;;;;;;;;;;;;;35.81;22.29;99567.03;5085253;28;19963;-68
2022/07/21 11:31:49;;;;;;;;;;;;;;;36.01;21.45;99556.34;5086008;28;19924;-68
2022/07/21 11:34:14;;;;;;;;;;;;;;;36.06;20.93;99565.22;5084807;28;19984;-68
2022/07/21 11:36:39;;;;;;;;;;;;;;;35.95;20.49;99564.00;5085741;28;19912;-68
2022/07/21 11:39:05;;;;;;;;;;;;;;;35.68;21.83;99564.50;5085021;28;20194;-68
2022/07/21 11:41:30;;;;;;;;;;;;;;;35.88;21.10;99557.41;5085637;28;19967;-68
2022/07/21 11:43:56;;;;;;;;;;;;;;;35.95;21.36;99555.75;5082990;28;19973;-68
2022/07/21 11:46:21;;;;;;;;;;;;;;;35.75;22.34;99528.97;5085358;28;19912;-68
2022/07/21 11:48:46;;;;;;;;;;;;;;;36.00;21.18;99547.28;5084666;28;19991;-68
2022/07/21 11:51:12;;;;;;;;;;;;;;;36.10;21.04;99549.63;5084705;28;19912;-68
2022/07/21 11:53:43;;;;;;;;;;;;;;;36.10;21.59;99552.38;5085386;28;19921;-68
2022/07/21 11:56:15;;;;;;;;;;;;;;;35.84;21.43;99551.78;5085615;28;20259;-68
2022/07/21 11:58:41;;;;;;;;;;;;;;;35.72;21.55;99546.97;5085435;28;19914;-68
2022/07/21 12:01:07;;;;;;;;;;;;;;;35.78;19.68;99559.41;5085111;28;20213;-68
2022/07/21 12:03:32;;;;;;;;;;;;;;;35.51;19.86;99551.63;5084696;28;19955;-68
2022/07/21 12:05:59;;;;;;;;;;;;;;;35.67;19.36;99543.59;5085081;28;19924;-68
2022/07/21 12:08:25;;;;;;;;;;;;;;;35.47;19.48;99542.41;5084971;28;20232;-68
2022/07/21 12:10:50;;;;;;;;;;;;;;;35.25;19.68;99551.69;5085536;28;19916;-68
2022/07/21 12:13:16;;;;;;;;;;;;;;;35.18;20.04;99543.16;5086393;28;19912;-68
2022/07/21 12:15:41;;;;;;;;;;;;;;;35.10;20.04;99536.53;5083581;28;20206;-67
2022/07/21 12:18:21;;;;;;;;;;;;;;;35.28;19.74;99534.50;5085583;28;19920;-68
2022/07/21 12:20:47;;;;;;;;;;;;;;;35.24;19.73;99536.31;5085734;28;19924;-68
2022/07/21 12:23:23;;;;;;;;;;;;;;;35.67;19.00;99533.38;5083748;28;20255;-68
2022/07/21 12:25:49;;;;;;;;;;;;;;;35.65;18.48;99530.16;5083771;28;19916;-68
2022/07/21 12:28:14;;;;;;;;;;;;;;;35.67;18.33;99525.13;5085750;28;20079;-68
2022/07/21 12:30:42;;;;;;;;;;;;;;;35.57;19.90;99521.94;5095399;28;20209;-68
2022/07/21 12:33:12;;;;;;;;;;;;;;;35.37;20.50;99515.22;5099696;28;19919;-68
2022/07/21 12:35:39;;;;;;;;;;;;;;;35.35;20.33;99518.31;5103956;28;19920;-68
2022/07/21 12:38:06;;;;;;;;;;;;;;;35.58;19.89;99513.34;5104111;28;19920;-68
2022/07/21 12:40:32;;;;;;;;;;;;;;;35.38;20.59;99506.66;5103958;28;19923;-68
2022/07/21 12:43:12;;;;;;;;;;;;;;;35.44;20.98;99510.03;5104185;28;19912;-68
2022/07/21 12:46:03;;;;;;;;;;;;;;;35.33;20.40;99501.31;5097848;28;19951;-68
2022/07/21 12:48:31;;;;;;;;;;;;;;;35.41;19.24;99508.75;5065355;28;19912;-68
2022/07/21 12:50:57;;;;;;;;;;;;;;;35.50;19.61;99495.75;5103279;28;19916;-68